createdAt,value
2022-09-18T08:54:36.151Z,13.50
2022-09-18T08:57:15.560Z,13.60
2022-09-18T08:59:47.327Z,13.50
2022-09-18T09:02:20.830Z,13.50
2022-09-18T09:05:00.542Z,13.60
2022-09-18T09:07:46.319Z,13.60
2022-09-18T09:10:26.684Z,13.60
2022-09-18T09:13:16.145Z,13.70
2022-09-18T09:16:10.960Z,13.70
2022-09-18T09:18:58.418Z,13.70
2022-09-18T09:21:47.045Z,13.80
2022-09-18T09:24:36.100Z,13.70
2022-09-18T09:27:19.258Z,13.80
2022-09-18T09:29:47.233Z,13.80
2022-09-18T09:32:28.324Z,13.90
2022-09-18T09:35:16.228Z,13.90
2022-09-18T09:37:46.440Z,14.00
2022-09-18T09:40:23.328Z,14.10
2022-09-18T09:43:00.956Z,14.10
2022-09-18T09:45:44.182Z,14.00
2022-09-18T09:48:21.646Z,13.80
2022-09-18T09:51:06.564Z,13.70
2022-09-18T09:53:33.285Z,13.70
2022-09-18T09:56:34.394Z,13.60
2022-09-18T09:59:26.525Z,13.50
2022-09-18T10:01:59.018Z,13.40
2022-09-18T10:05:03.983Z,12.50
2022-09-18T10:07:41.451Z,13.40
2022-09-18T10:10:17.368Z,13.40
2022-09-18T10:12:58.660Z,13.40
2022-09-18T10:15:39.708Z,13.50
2022-09-18T10:18:16.533Z,13.50
2022-09-18T10:20:44.616Z,13.50
2022-09-18T10:23:25.682Z,13.40
2022-09-18T10:26:00.783Z,13.50
2022-09-18T10:28:29.649Z,13.50
2022-09-18T10:31:12.146Z,13.70
2022-09-18T10:33:47.196Z,13.60
2022-09-18T10:36:17.004Z,13.50
2022-09-18T10:38:46.142Z,13.50
2022-09-18T10:41:32.943Z,13.50
2022-09-18T10:44:02.513Z,13.60
2022-09-18T10:46:32.928Z,13.60
2022-09-18T10:49:04.572Z,13.60
2022-09-18T10:51:31.287Z,13.70
2022-09-18T10:54:32.006Z,13.70
2022-09-18T10:57:25.404Z,13.50
2022-09-18T10:59:52.097Z,13.40
2022-09-18T11:02:21.231Z,13.40
2022-09-18T11:04:49.456Z,13.40
2022-09-18T11:07:20.385Z,13.40
2022-09-18T11:09:50.692Z,13.20
2022-09-18T11:15:07.876Z,13.40
2022-09-18T11:17:35.708Z,13.40
2022-09-18T11:20:04.122Z,13.40
2022-09-18T11:22:39.582Z,13.30
2022-09-18T11:25:24.887Z,13.40
2022-09-18T11:27:52.895Z,13.50
2022-09-18T11:30:33.909Z,13.50
2022-09-18T11:33:17.306Z,13.60
2022-09-18T11:35:51.683Z,13.50
2022-09-18T11:38:20.976Z,13.50
2022-09-18T11:40:51.863Z,13.40
2022-09-18T11:43:28.787Z,13.40
2022-09-18T11:46:16.895Z,13.50
2022-09-18T11:49:04.487Z,13.40
2022-09-18T11:52:12.550Z,13.40
2022-09-18T11:55:00.514Z,13.50
2022-09-18T11:57:38.535Z,13.50
2022-09-18T12:00:25.559Z,13.50
2022-09-18T12:02:52.269Z,13.50
2022-09-18T12:05:35.491Z,13.50
2022-09-18T12:08:11.565Z,13.50
2022-09-18T12:11:05.148Z,13.50
2022-09-18T12:13:59.859Z,13.50
2022-09-18T12:16:59.121Z,13.60
2022-09-18T12:19:38.912Z,13.50
2022-09-18T12:22:19.755Z,13.40
2022-09-18T12:24:46.716Z,13.40
2022-09-18T12:27:31.082Z,13.40
2022-09-18T12:30:17.997Z,13.40
2022-09-18T12:32:53.504Z,13.30
2022-09-18T12:35:26.950Z,13.20
2022-09-18T12:38:01.265Z,13.30
2022-09-18T12:41:16.528Z,13.30
2022-09-18T12:44:10.583Z,13.40
2022-09-18T12:46:37.187Z,13.50
2022-09-18T12:49:30.344Z,13.50
2022-09-18T12:52:02.883Z,13.70
2022-09-18T12:54:48.309Z,13.70
2022-09-18T12:57:39.031Z,13.80
2022-09-18T13:00:16.116Z,13.80
2022-09-18T13:03:06.011Z,13.90
2022-09-18T13:05:49.124Z,13.90
2022-09-18T13:08:21.379Z,13.90
2022-09-18T13:10:50.494Z,13.90
2022-09-18T13:13:36.287Z,13.80
2022-09-18T13:16:18.756Z,13.80
2022-09-18T13:18:57.606Z,13.70
2022-09-18T13:21:37.437Z,13.80
2022-09-18T13:24:05.157Z,13.80
2022-09-18T13:26:37.849Z,13.70
2022-09-18T13:29:25.129Z,13.60
2022-09-18T13:31:54.991Z,13.70
2022-09-18T13:34:22.757Z,13.60
2022-09-18T13:36:49.602Z,13.70
2022-09-18T13:39:26.892Z,13.80
2022-09-18T13:41:55.871Z,13.70
2022-09-18T13:44:29.615Z,13.70
2022-09-18T13:47:14.777Z,13.60
2022-09-18T13:49:52.420Z,13.70
2022-09-18T13:52:33.920Z,13.80
2022-09-18T13:55:13.499Z,13.80
2022-09-18T13:57:41.964Z,13.70
2022-09-18T14:00:34.903Z,13.80
2022-09-18T14:03:07.740Z,13.80
2022-09-18T14:05:43.937Z,13.80
2022-09-18T14:08:19.693Z,13.80
2022-09-18T14:11:13.709Z,13.80
2022-09-18T14:13:51.184Z,13.80
2022-09-18T14:16:23.895Z,13.80
2022-09-18T14:19:25.907Z,13.80
2022-09-18T14:21:52.817Z,13.70
2022-09-18T14:24:40.863Z,13.60
2022-09-18T14:27:45.329Z,13.50
2022-09-18T14:30:22.997Z,13.40
2022-09-18T14:33:11.574Z,13.40
2022-09-18T14:35:55.203Z,13.40
2022-09-18T14:38:36.359Z,13.30
2022-09-18T14:41:22.787Z,13.20
2022-09-18T14:44:00.953Z,13.00
2022-09-18T14:46:28.472Z,12.80
2022-09-18T14:48:57.817Z,12.70
2022-09-18T14:51:40.583Z,12.70
2022-09-18T14:54:23.407Z,12.50
2022-09-18T14:56:59.842Z,12.40
2022-09-18T14:59:29.255Z,12.20
2022-09-18T15:02:31.370Z,12.10
2022-09-18T15:05:01.130Z,12.10
2022-09-18T15:07:28.010Z,12.00
2022-09-18T15:09:59.677Z,11.90
2022-09-18T15:12:30.342Z,11.90
2022-09-18T15:14:58.735Z,11.90
2022-09-18T15:17:28.057Z,11.90
2022-09-18T15:20:01.445Z,11.80
2022-09-18T15:22:29.632Z,11.70
2022-09-18T15:25:02.025Z,11.70
2022-09-18T15:27:30.245Z,11.80
2022-09-18T15:30:06.185Z,11.70
2022-09-18T15:32:39.134Z,11.80
2022-09-18T15:35:08.830Z,11.80
2022-09-18T15:37:38.321Z,11.80
2022-09-18T15:40:09.414Z,11.80
2022-09-18T15:42:40.198Z,11.80
2022-09-18T15:45:06.810Z,11.80
2022-09-18T15:47:37.184Z,11.80
2022-09-18T15:50:13.054Z,11.80
2022-09-18T15:52:52.055Z,11.80
2022-09-18T15:55:30.174Z,11.80
2022-09-18T15:58:07.462Z,11.80
2022-09-18T16:00:37.159Z,11.80
2022-09-18T16:03:08.805Z,11.80
2022-09-18T16:05:37.957Z,11.90
2022-09-18T16:08:16.703Z,11.90
2022-09-18T16:10:48.751Z,11.90
2022-09-18T16:13:15.466Z,11.90
2022-09-18T16:15:47.390Z,11.90
2022-09-18T16:18:23.756Z,12.00
2022-09-18T16:20:57.659Z,11.90
2022-09-18T16:23:31.878Z,11.90
2022-09-18T16:26:10.509Z,11.90
2022-09-18T16:28:43.241Z,11.90
2022-09-18T16:31:16.295Z,11.80
2022-09-18T16:34:03.734Z,11.80
2022-09-18T16:36:39.013Z,11.80
2022-09-18T16:39:17.857Z,11.80
2022-09-18T16:41:45.383Z,11.80
2022-09-18T16:44:13.682Z,11.80
2022-09-18T16:46:52.268Z,11.80
2022-09-18T16:49:40.095Z,11.80
2022-09-18T16:52:06.791Z,11.90
2022-09-18T16:54:33.528Z,11.80
2022-09-18T16:57:05.586Z,11.90
2022-09-18T16:59:33.059Z,11.90
2022-09-18T17:02:05.111Z,11.80
2022-09-18T17:04:33.336Z,11.80
2022-09-18T17:07:00.343Z,11.80
2022-09-18T17:09:27.372Z,11.50
2022-09-18T17:11:54.821Z,11.30
2022-09-18T17:14:22.985Z,11.30
2022-09-18T17:16:52.301Z,11.20
2022-09-18T17:19:19.096Z,11.10
2022-09-18T17:24:13.866Z,10.70
2022-09-18T17:26:42.162Z,10.60
2022-09-18T17:29:11.371Z,10.60
2022-09-18T17:31:38.268Z,10.60
2022-09-18T17:34:05.709Z,10.60
2022-09-18T17:36:37.868Z,10.70
2022-09-18T17:39:04.705Z,10.70
2022-09-18T17:41:32.674Z,10.70
2022-09-18T17:43:59.717Z,10.70
2022-09-18T17:46:28.681Z,10.70
2022-09-18T17:48:57.413Z,10.70
2022-09-18T17:51:28.470Z,10.80
2022-09-18T17:54:02.709Z,10.80
2022-09-18T17:56:30.470Z,10.80
2022-09-18T17:59:05.487Z,10.80
2022-09-18T18:01:36.353Z,10.80
2022-09-18T18:04:04.591Z,10.80
2022-09-18T18:06:32.087Z,10.90
2022-09-18T18:08:59.023Z,10.90
2022-09-18T18:11:26.045Z,10.80
2022-09-18T18:13:54.300Z,10.60
2022-09-18T18:16:30.604Z,10.70
2022-09-18T18:19:05.664Z,10.50
2022-09-18T18:21:35.758Z,10.50
2022-09-18T18:24:08.883Z,10.40
2022-09-18T18:26:39.558Z,10.30
2022-09-18T18:29:10.710Z,10.40
2022-09-18T18:31:42.003Z,10.40
2022-09-18T18:34:10.832Z,10.30
2022-09-18T18:36:39.406Z,10.40
2022-09-18T18:39:09.811Z,10.30
2022-09-18T18:41:37.182Z,10.20
2022-09-18T18:44:08.174Z,10.20
2022-09-18T18:46:36.766Z,10.20
2022-09-18T18:49:12.021Z,10.10
2022-09-18T18:51:43.674Z,10.10
2022-09-18T18:54:13.953Z,10.10
2022-09-18T18:56:41.345Z,10.10
2022-09-18T18:59:11.926Z,10.20
2022-09-18T19:01:39.516Z,10.20
2022-09-18T19:04:11.179Z,10.20
2022-09-18T19:06:41.418Z,10.20
2022-09-18T19:09:19.861Z,10.20
2022-09-18T19:11:48.291Z,10.30
2022-09-18T19:14:23.475Z,10.30
2022-09-18T19:16:51.076Z,10.30
2022-09-18T19:19:19.728Z,10.30
2022-09-18T19:21:49.009Z,10.30
2022-09-18T19:24:18.503Z,10.30
2022-09-18T19:26:46.598Z,10.30
2022-09-18T19:29:17.416Z,10.30
2022-09-18T19:31:45.963Z,10.30
2022-09-18T19:34:15.851Z,10.30
2022-09-18T19:36:47.203Z,10.40
2022-09-18T19:39:17.583Z,10.30
2022-09-18T19:41:53.310Z,10.30
2022-09-18T19:44:29.391Z,10.40
2022-09-18T19:46:59.241Z,10.40
2022-09-18T19:49:30.099Z,10.40
2022-09-18T19:51:56.758Z,10.40
2022-09-18T19:54:25.958Z,10.30
2022-09-18T19:56:52.927Z,10.40
2022-09-18T19:59:19.726Z,10.30
2022-09-18T20:01:46.502Z,10.30
2022-09-18T20:04:13.344Z,10.30
2022-09-18T20:06:42.290Z,10.30
2022-09-18T20:09:10.145Z,10.20
2022-09-18T20:11:39.308Z,10.20
2022-09-18T20:14:06.115Z,10.20
2022-09-18T20:16:35.812Z,10.10
2022-09-18T20:19:02.766Z,10.20
2022-09-18T20:21:29.824Z,10.10
2022-09-18T20:23:58.301Z,10.00
2022-09-18T20:26:25.748Z,9.90
2022-09-18T20:28:52.734Z,9.80
2022-09-18T20:31:23.708Z,9.90
2022-09-18T20:33:58.300Z,9.80
2022-09-18T20:36:26.042Z,9.80
2022-09-18T20:38:58.086Z,9.80
2022-09-18T20:41:27.932Z,9.70
2022-09-18T20:43:56.803Z,9.70
2022-09-18T20:46:23.902Z,9.70
2022-09-18T20:48:55.168Z,9.70
2022-09-18T20:51:24.642Z,9.70
2022-09-18T20:53:54.033Z,9.60
2022-09-18T20:56:21.738Z,9.60
2022-09-18T20:58:51.532Z,9.60
2022-09-18T21:01:21.432Z,9.60
2022-09-18T21:03:54.904Z,9.50
2022-09-18T21:06:24.108Z,9.40
2022-09-18T21:08:55.189Z,9.50
2022-09-18T21:11:32.252Z,9.50
2022-09-18T21:14:03.226Z,9.60
2022-09-18T21:16:37.856Z,9.60
2022-09-18T21:19:05.691Z,9.50
2022-09-18T21:21:34.202Z,9.40
2022-09-18T21:24:04.292Z,9.50
2022-09-18T21:26:33.981Z,9.60
2022-09-18T21:29:04.538Z,9.60
2022-09-18T21:31:36.554Z,9.50
2022-09-18T21:34:07.749Z,9.50
2022-09-18T21:36:38.405Z,9.50
2022-09-18T21:39:08.774Z,9.50
2022-09-18T21:41:39.452Z,9.50
2022-09-18T21:44:08.921Z,9.50
2022-09-18T21:46:39.345Z,9.50
2022-09-18T21:49:08.744Z,9.40
2022-09-18T21:51:36.989Z,9.50
2022-09-18T21:54:11.220Z,9.50
2022-09-18T21:56:37.860Z,9.50
2022-09-18T21:59:05.572Z,9.60
2022-09-18T22:01:32.765Z,9.60
2022-09-18T22:04:02.129Z,9.60
2022-09-18T22:06:32.562Z,9.50
2022-09-18T22:09:00.051Z,9.60
2022-09-18T22:11:31.663Z,9.70
2022-09-18T22:13:59.609Z,9.60
2022-09-18T22:16:29.431Z,9.60
2022-09-18T22:18:56.555Z,9.40
2022-09-18T22:21:29.503Z,9.50
2022-09-18T22:24:06.278Z,9.40
2022-09-18T22:26:37.727Z,9.40
2022-09-18T22:29:08.348Z,9.40
2022-09-18T22:31:36.867Z,9.50
2022-09-18T22:34:06.638Z,9.50
2022-09-18T22:36:33.476Z,9.50
2022-09-18T22:39:00.264Z,9.50
2022-09-18T22:41:26.938Z,9.50
2022-09-18T22:43:59.501Z,9.60
2022-09-18T22:46:26.242Z,9.60
2022-09-18T22:48:52.931Z,9.50
2022-09-18T22:51:22.405Z,9.60
2022-09-18T22:53:59.580Z,9.60
2022-09-18T22:56:28.455Z,9.60
2022-09-18T22:58:56.800Z,9.60
2022-09-18T23:01:28.291Z,9.60
2022-09-18T23:03:56.852Z,9.70
2022-09-18T23:06:25.768Z,9.60
2022-09-18T23:08:55.134Z,9.60
2022-09-18T23:11:24.795Z,9.60
2022-09-18T23:13:53.985Z,9.50
2022-09-18T23:16:22.081Z,9.50
2022-09-18T23:18:54.304Z,9.60
2022-09-18T23:21:24.373Z,9.60
2022-09-18T23:23:51.129Z,9.60
2022-09-18T23:26:26.774Z,9.60
2022-09-18T23:28:55.471Z,9.60
2022-09-18T23:31:31.519Z,9.70
2022-09-18T23:34:00.476Z,9.70
2022-09-18T23:36:27.116Z,9.70
2022-09-18T23:38:59.610Z,9.70
2022-09-18T23:41:29.695Z,9.70
2022-09-18T23:43:56.689Z,9.70
2022-09-18T23:46:24.171Z,9.70
2022-09-18T23:48:56.575Z,9.60
2022-09-18T23:51:26.252Z,9.60
2022-09-18T23:53:55.584Z,9.70
2022-09-18T23:56:23.573Z,9.70
2022-09-18T23:58:54.677Z,9.60
